Time;durP1;ratioP1;P1;durP2;ratioP2;P2;SDS_P1;SDS_P2;PMS_P1;PMS_P2;Temp;Humidity;BMP_temperature;BMP_pressure;BME280_temperature;BME280_humidity;BME280_pressure;Samples;Min_cycle;Max_cycle;Signal;HPM_P1;HPM_P2
2023/03/08 00:01:21;;;;;;;5.05;3.42;;;4.60;78.20;;;;;;4885322;29;20028;-82
2023/03/08 00:03:49;;;;;;;4.10;2.95;;;4.60;78.20;;;;;;4918575;29;20036;-83
2023/03/08 00:06:15;;;;;;;4.63;3.25;;;4.60;78.20;;;;;;4916716;29;20032;-83
2023/03/08 00:08:42;;;;;;;4.50;3.63;;;4.60;78.20;;;;;;4918454;29;20075;-84
2023/03/08 00:11:10;;;;;;;4.90;3.67;;;4.60;78.10;;;;;;4933157;29;20024;-83
2023/03/08 00:13:36;;;;;;;4.30;3.28;;;4.60;78.20;;;;;;4901297;29;20477;-82
2023/03/08 00:16:04;;;;;;;4.53;3.60;;;4.50;78.10;;;;;;4917163;29;20039;-82
2023/03/08 00:18:30;;;;;;;5.10;3.78;;;4.50;78.10;;;;;;4917165;29;20072;-83
2023/03/08 00:21:02;;;;;;;5.18;4.10;;;4.50;78.10;;;;;;4885686;29;20107;-83
2023/03/08 00:23:28;;;;;;;5.47;4.40;;;4.50;78.10;;;;;;4918258;29;20032;-83
2023/03/08 00:25:54;;;;;;;5.30;4.10;;;4.50;78.10;;;;;;4916999;29;20035;-82
2023/03/08 00:28:20;;;;;;;5.75;4.47;;;4.40;78.10;;;;;;4933452;29;20107;-83
2023/03/08 00:30:53;;;;;;;5.20;4.28;;;4.40;78.10;;;;;;4933170;29;20470;-83
2023/03/08 00:33:20;;;;;;;;;;;4.40;78.10;;;;;;4901887;29;20036;-83
2023/03/08 00:35:58;;;;;;;6.55;4.72;;;4.40;78.70;;;;;;4917361;29;19962;-84
2023/03/08 00:38:24;;;;;;;5.70;4.50;;;4.40;78.10;;;;;;4901763;29;20036;-82
2023/03/08 00:40:50;;;;;;;5.70;4.63;;;4.30;78.10;;;;;;4917112;29;20171;-84
2023/03/08 00:43:16;;;;;;;5.10;4.32;;;4.30;78.10;;;;;;4900850;29;20044;-83
2023/03/08 00:45:41;;;;;;;6.80;5.30;;;4.30;78.10;;;;;;4900919;29;20032;-82
2023/03/08 00:48:07;;;;;;;6.22;4.93;;;4.30;78.10;;;;;;4916690;29;20029;-82
2023/03/08 00:50:33;;;;;;;6.30;5.20;;;4.30;78.70;;;;;;4901173;29;20039;-82
2023/03/08 00:52:59;;;;;;;6.38;5.28;;;4.20;78.10;;;;;;4900788;29;20047;-82
2023/03/08 00:55:28;;;;;;;7.18;5.43;;;4.30;78.10;;;;;;4900667;29;20016;-82
2023/03/08 00:57:54;;;;;;;6.00;5.05;;;4.20;78.10;;;;;;4885280;29;20036;-83
2023/03/08 01:00:20;;;;;;;7.07;5.50;;;4.20;78.10;;;;;;4901438;29;20095;-83
2023/03/08 01:02:45;;;;;;;6.43;5.28;;;4.20;78.70;;;;;;4916812;29;20043;-83
2023/03/08 01:05:12;;;;;;;6.38;5.35;;;4.20;78.10;;;;;;4901418;29;20103;-82
2023/03/08 01:07:39;;;;;;;6.50;5.50;;;4.20;78.10;;;;;;4886017;29;20044;-83
2023/03/08 01:10:06;;;;;;;7.30;6.05;;;4.20;78.10;;;;;;4885665;29;20059;-82
2023/03/08 01:12:33;;;;;;;8.18;6.38;;;4.20;78.10;;;;;;4916489;29;20040;-83
2023/03/08 01:14:59;;;;;;;6.68;5.38;;;4.20;78.10;;;;;;4885208;29;20028;-83
2023/03/08 01:17:25;;;;;;;7.50;6.10;;;4.10;78.00;;;;;;4916690;29;20032;-83
2023/03/08 01:19:51;;;;;;;7.65;6.18;;;4.10;78.00;;;;;;4904888;29;20028;-83
2023/03/08 01:22:17;;;;;;;7.05;5.72;;;4.10;78.00;;;;;;4904395;29;20031;-83
2023/03/08 01:24:47;;;;;;;8.38;6.70;;;4.10;78.10;;;;;;4904936;29;20541;-82
2023/03/08 01:27:13;;;;;;;7.18;5.70;;;4.10;78.00;;;;;;4888464;29;20035;-83
2023/03/08 01:29:39;;;;;;;7.13;5.82;;;4.10;78.00;;;;;;4920206;29;20028;-83
2023/03/08 01:32:05;;;;;;;7.45;6.35;;;4.00;78.00;;;;;;4904513;29;20513;-83
2023/03/08 01:34:31;;;;;;;6.95;6.03;;;4.00;78.00;;;;;;4904035;29;20488;-83
2023/03/08 01:36:57;;;;;;;8.32;6.82;;;4.00;78.00;;;;;;4904383;29;20130;-82
2023/03/08 01:39:23;;;;;;;7.95;6.60;;;4.00;78.00;;;;;;4920159;29;20449;-84
2023/03/08 01:41:48;;;;;;;8.43;6.45;;;4.00;78.00;;;;;;4919476;29;20043;-83
2023/03/08 01:44:21;;;;;;;8.18;6.68;;;4.00;78.00;;;;;;4903611;29;20131;-82
2023/03/08 01:46:48;;;;;;;8.13;6.30;;;4.00;78.00;;;;;;4920256;29;20032;-83
2023/03/08 01:49:40;;;;;;;7.50;6.03;;;4.00;78.00;;;;;;4916886;29;20466;-83
2023/03/08 01:52:06;;;;;;;7.85;6.32;;;3.90;77.90;;;;;;4903520;29;20035;-83
2023/03/08 01:54:45;;;;;;;8.57;6.72;;;4.00;77.90;;;;;;4934955;29;20091;-82
2023/03/08 01:57:19;;;;;;;7.82;6.30;;;3.90;77.90;;;;;;4935524;29;20028;-84
2023/03/08 01:59:48;;;;;;;7.35;6.22;;;3.90;78.00;;;;;;4888901;29;20020;-83
2023/03/08 02:02:15;;;;;;;7.68;6.32;;;3.90;78.60;;;;;;4903641;29;20362;-83
2023/03/08 02:04:42;;;;;;;7.85;6.80;;;3.90;78.00;;;;;;4935190;29;20032;-82
2023/03/08 02:07:11;;;;;;;7.40;6.20;;;3.80;78.00;;;;;;4888056;29;20028;-82
2023/03/08 02:09:37;;;;;;;7.68;6.20;;;3.80;78.00;;;;;;4903272;29;20028;-83
2023/03/08 02:12:07;;;;;;;8.38;6.75;;;3.80;77.90;;;;;;4919062;29;20036;-82
2023/03/08 02:14:34;;;;;;;6.82;5.97;;;3.80;77.90;;;;;;4919572;29;20044;-83
2023/03/08 02:17:00;;;;;;;8.48;6.97;;;3.80;77.90;;;;;;4919372;29;20449;-82
2023/03/08 02:19:43;;;;;;;8.40;6.40;;;3.80;77.90;;;;;;4903180;29;20032;-83
2023/03/08 02:22:15;;;;;;;7.82;6.07;;;3.80;77.90;;;;;;4887428;29;20053;-82
2023/03/08 02:24:40;;;;;;;7.10;6.13;;;3.80;77.90;;;;;;4934819;29;20055;-83
2023/03/08 02:27:12;;;;;;;8.32;6.38;;;3.80;77.90;;;;;;4887472;29;20055;-83
2023/03/08 02:29:38;;;;;;;8.05;6.55;;;3.80;77.90;;;;;;4934673;29;20132;-82
2023/03/08 02:32:04;;;;;;;8.32;6.53;;;3.80;78.50;;;;;;4887455;29;20060;-82
2023/03/08 02:34:30;;;;;;;7.82;6.82;;;3.70;77.90;;;;;;4918554;29;20054;-83
2023/03/08 02:36:57;;;;;;;7.60;6.40;;;3.70;77.90;;;;;;4902856;29;20075;-82
2023/03/08 02:39:23;;;;;;;7.90;6.55;;;3.70;77.90;;;;;;4902751;29;20064;-83
2023/03/08 02:41:49;;;;;;;8.50;6.82;;;3.70;77.90;;;;;;4887648;29;20123;-83
2023/03/08 02:44:14;;;;;;;7.13;5.88;;;3.70;77.90;;;;;;4887388;29;20031;-82
2023/03/08 02:46:40;;;;;;;10.23;6.60;;;3.70;77.90;;;;;;4902812;29;20055;-83
2023/03/08 02:49:06;;;;;;;8.35;6.60;;;3.70;77.90;;;;;;4902793;29;20036;-85
2023/03/08 02:51:32;;;;;;;9.45;7.10;;;3.70;77.80;;;;;;4902542;29;20529;-83
2023/03/08 02:53:58;;;;;;;7.80;6.65;;;3.70;77.80;;;;;;4902321;29;20068;-83
2023/03/08 02:56:24;;;;;;;7.95;6.05;;;3.70;77.80;;;;;;4886978;29;20051;-83
2023/03/08 02:58:50;;;;;;;8.70;6.75;;;3.70;77.80;;;;;;4918925;29;20040;-83
2023/03/08 03:01:16;;;;;;;8.38;6.85;;;3.70;77.80;;;;;;4902813;29;20035;-83
2023/03/08 03:03:42;;;;;;;7.82;6.50;;;3.70;77.80;;;;;;4918925;29;20091;-82
2023/03/08 03:06:19;;;;;;;7.88;6.43;;;3.70;77.80;;;;;;4902423;29;20433;-84
2023/03/08 03:08:49;;;;;;;8.82;6.95;;;3.70;77.90;;;;;;4918004;29;20374;-78
2023/03/08 03:11:18;;;;;;;7.93;6.60;;;3.70;77.80;;;;;;4916862;29;20095;-78
2023/03/08 03:13:52;;;;;;;8.18;6.90;;;3.70;77.80;;;;;;4886287;29;20043;-80
2023/03/08 03:16:18;;;;;;;8.57;6.50;;;3.70;77.80;;;;;;4917310;29;20072;-79
2023/03/08 03:18:44;;;;;;;8.90;6.60;;;3.70;77.80;;;;;;4917605;29;20040;-78
2023/03/08 03:21:12;;;;;;;8.43;6.45;;;3.70;77.80;;;;;;4917332;29;20040;-78
2023/03/08 03:23:39;;;;;;;9.55;7.22;;;3.60;77.80;;;;;;4917344;29;20039;-79
2023/03/08 03:26:15;;;;;;;8.20;7.03;;;3.60;77.80;;;;;;4900861;29;20476;-78
2023/03/08 03:28:42;;;;;;;7.90;6.32;;;3.70;77.80;;;;;;4932886;29;20043;-78
2023/03/08 03:31:11;;;;;;;8.23;6.63;;;3.70;77.80;;;;;;4917615;29;20028;-80
2023/03/08 03:33:38;;;;;;;8.57;7.07;;;3.70;77.80;;;;;;4900782;29;20036;-79
2023/03/08 03:36:06;;;;;;;8.05;6.75;;;3.70;77.80;;;;;;4916319;29;20552;-78
2023/03/08 03:38:33;;;;;;;8.93;7.25;;;3.60;77.80;;;;;;4932431;29;20167;-78
2023/03/08 03:41:08;;;;;;;9.02;7.03;;;3.70;77.80;;;;;;4900580;29;20060;-78
2023/03/08 03:43:35;;;;;;;9.30;7.15;;;3.70;77.80;;;;;;4932767;29;20119;-78
2023/03/08 03:46:03;;;;;;;8.48;6.95;;;3.60;77.70;;;;;;4901278;29;20443;-79
2023/03/08 03:48:30;;;;;;;9.02;6.72;;;3.70;77.80;;;;;;4932379;29;20477;-79
2023/03/08 03:50:57;;;;;;;9.27;7.53;;;3.70;77.80;;;;;;4900475;29;20119;-79
2023/03/08 03:53:24;;;;;;;8.15;6.80;;;3.70;77.80;;;;;;4915945;29;20075;-79
2023/03/08 03:55:50;;;;;;;10.90;7.72;;;3.70;77.80;;;;;;4900445;29;20036;-80
2023/03/08 03:58:16;;;;;;;9.23;7.43;;;3.70;77.70;;;;;;4900757;29;20123;-79
2023/03/08 04:00:43;;;;;;;10.05;7.50;;;3.70;77.70;;;;;;4900625;29;20036;-79
2023/03/08 04:03:25;;;;;;;10.23;8.18;;;3.70;77.80;;;;;;4900748;29;20063;-78
2023/03/08 04:05:52;;;;;;;10.18;7.93;;;3.70;77.70;;;;;;4899992;29;20036;-81
2023/03/08 04:08:18;;;;;;;11.77;7.90;;;3.70;77.70;;;;;;4916277;29;20137;-78
2023/03/08 04:10:44;;;;;;;10.93;8.65;;;3.70;77.70;;;;;;4916041;29;20040;-80
2023/03/08 04:13:11;;;;;;;11.27;8.45;;;3.70;77.80;;;;;;4931742;29;20496;-78
2023/03/08 04:15:38;;;;;;;11.23;8.30;;;3.70;77.80;;;;;;4915704;29;20028;-79
2023/03/08 04:18:07;;;;;;;13.50;8.68;;;3.70;77.80;;;;;;4916104;29;20039;-78
2023/03/08 04:20:34;;;;;;;11.93;8.85;;;3.70;77.80;;;;;;4915635;29;20050;-81
2023/03/08 04:23:02;;;;;;;13.00;9.63;;;3.80;77.80;;;;;;4900135;29;20051;-80
2023/03/08 04:25:34;;;;;;;14.52;9.57;;;3.70;77.70;;;;;;4915837;29;20458;-79
2023/03/08 04:28:00;;;;;;;13.45;9.50;;;3.80;77.80;;;;;;4900863;29;20040;-79
2023/03/08 04:30:26;;;;;;;13.32;9.50;;;3.80;77.80;;;;;;4900133;29;20035;-78
2023/03/08 04:32:55;;;;;;;14.65;10.20;;;3.80;77.80;;;;;;4900653;29;20105;-79
2023/03/08 04:35:24;;;;;;;13.60;9.10;;;3.80;77.80;;;;;;4885047;29;20052;-78
2023/03/08 04:37:52;;;;;;;15.25;10.38;;;3.80;77.80;;;;;;4900322;29;20036;-79
2023/03/08 04:40:21;;;;;;;15.20;9.98;;;3.80;77.80;;;;;;4900402;29;20491;-78
2023/03/08 04:42:53;;;;;;;14.07;10.32;;;3.80;77.80;;;;;;4899923;29;20043;-78
2023/03/08 04:45:24;;;;;;;15.52;9.68;;;3.80;77.70;;;;;;4900820;29;20429;-78
2023/03/08 04:47:52;;;;;;;14.95;10.00;;;3.80;77.80;;;;;;4931760;29;20059;-78
2023/03/08 04:50:19;;;;;;;16.13;10.68;;;3.80;77.80;;;;;;4900207;29;20040;-78
2023/03/08 04:52:44;;;;;;;17.00;10.95;;;3.80;78.40;;;;;;4871315;29;20095;-79
2023/03/08 04:55:10;;;;;;;16.35;10.60;;;3.80;77.80;;;;;;4903997;29;20036;-79
2023/03/08 04:57:37;;;;;;;17.00;11.02;;;3.80;77.80;;;;;;4888586;29;20048;-81
2023/03/08 05:00:04;;;;;;;15.60;11.18;;;3.90;77.80;;;;;;4873498;29;20445;-79
2023/03/08 05:02:32;;;;;;;15.98;11.10;;;3.90;77.80;;;;;;4888462;29;20123;-81
2023/03/08 05:04:58;;;;;;;17.73;11.93;;;3.90;77.80;;;;;;4887999;29;20036;-79
2023/03/08 05:07:25;;;;;;;17.95;12.25;;;3.90;77.80;;;;;;4904237;29;20032;-79
2023/03/08 05:09:53;;;;;;;17.08;11.75;;;3.90;77.80;;;;;;4935161;29;20047;-78
2023/03/08 05:12:18;;;;;;;17.95;11.45;;;3.90;77.80;;;;;;4872287;29;20037;-79
2023/03/08 05:14:50;;;;;;;18.02;11.82;;;3.90;77.80;;;;;;4888883;29;20454;-79
2023/03/08 05:17:16;;;;;;;16.52;11.70;;;3.90;78.00;;;;;;4904158;29;20032;-79
2023/03/08 05:19:43;;;;;;;16.33;11.43;;;3.90;77.80;;;;;;4872815;29;20068;-81
2023/03/08 05:22:11;;;;;;;17.13;11.23;;;3.90;77.80;;;;;;4919024;29;20127;-78
2023/03/08 05:24:43;;;;;;;17.20;11.30;;;3.90;77.80;;;;;;4874424;29;20366;-79
2023/03/08 05:27:11;;;;;;;17.80;12.13;;;3.90;77.90;;;;;;4888192;29;20040;-79
2023/03/08 05:29:37;;;;;;;17.40;10.85;;;3.90;77.80;;;;;;4872112;29;20415;-78
2023/03/08 05:32:05;;;;;;;21.90;12.80;;;3.90;77.80;;;;;;4918500;29;20044;-81
2023/03/08 05:34:32;;;;;;;18.52;11.63;;;3.90;77.80;;;;;;4887743;29;20063;-79
2023/03/08 05:37:00;;;;;;;16.92;11.43;;;3.90;78.40;;;;;;4918342;29;20044;-78
2023/03/08 05:39:27;;;;;;;20.08;12.65;;;4.00;77.90;;;;;;4887757;29;20043;-78
2023/03/08 05:41:59;;;;;;;18.60;12.65;;;4.00;77.80;;;;;;4903308;29;20024;-79
2023/03/08 05:44:30;;;;;;;18.10;11.90;;;4.00;77.80;;;;;;4873320;29;20454;-78
2023/03/08 05:46:58;;;;;;;17.77;12.23;;;4.00;77.90;;;;;;4872188;29;20136;-79
2023/03/08 05:49:25;;;;;;;18.70;11.82;;;4.00;77.90;;;;;;4887952;29;20036;-79
2023/03/08 05:51:50;;;;;;;19.55;12.15;;;4.00;77.90;;;;;;4887198;29;20397;-80
2023/03/08 05:54:16;;;;;;;17.88;11.48;;;4.00;77.90;;;;;;4887394;29;20068;-80
2023/03/08 05:56:45;;;;;;;18.75;12.57;;;4.00;77.90;;;;;;4888336;29;20095;-80
2023/03/08 05:59:25;;;;;;;19.98;12.93;;;4.00;77.90;;;;;;4903137;29;20086;-79
2023/03/08 06:01:52;;;;;;;16.23;11.02;;;4.00;77.90;;;;;;4918367;29;20087;-80
2023/03/08 06:04:30;;;;;;;18.40;11.77;;;4.00;77.90;;;;;;4902101;29;20044;-80
2023/03/08 06:06:55;;;;;;;18.95;12.60;;;4.00;77.90;;;;;;4871550;29;20028;-80
2023/03/08 06:09:25;;;;;;;19.67;13.13;;;4.00;77.90;;;;;;4902233;29;20489;-79
2023/03/08 06:11:51;;;;;;;17.02;11.18;;;4.00;77.80;;;;;;4903058;29;20032;-79
2023/03/08 06:14:17;;;;;;;19.38;12.95;;;4.00;77.80;;;;;;4902541;29;20074;-79
2023/03/08 06:16:47;;;;;;;20.17;12.75;;;4.00;77.90;;;;;;4886626;29;20032;-79
2023/03/08 06:19:14;;;;;;;18.10;11.77;;;4.00;77.90;;;;;;4917455;29;20047;-80
2023/03/08 06:21:43;;;;;;;17.55;12.38;;;4.00;77.90;;;;;;4886642;29;20032;-79
2023/03/08 06:24:09;;;;;;;18.17;11.73;;;4.00;77.90;;;;;;4902189;29;20540;-80
2023/03/08 06:26:35;;;;;;;18.08;11.60;;;4.10;77.90;;;;;;4886688;29;20028;-80
2023/03/08 06:29:02;;;;;;;18.52;13.13;;;4.10;77.90;;;;;;4886767;29;20043;-80
2023/03/08 06:31:30;;;;;;;17.38;11.75;;;4.10;77.90;;;;;;4887001;29;20363;-81
2023/03/08 06:33:56;;;;;;;16.83;11.88;;;4.10;77.90;;;;;;4871199;29;20043;-80
2023/03/08 06:36:25;;;;;;;21.00;13.05;;;4.10;77.90;;;;;;4871527;29;20056;-80
2023/03/08 06:38:50;;;;;;;18.08;12.32;;;4.10;77.90;;;;;;4902203;29;20055;-81
2023/03/08 06:41:18;;;;;;;17.95;11.68;;;4.10;78.00;;;;;;4902336;29;20036;-81
2023/03/08 06:43:48;;;;;;;18.23;11.85;;;4.10;78.00;;;;;;4933465;29;20051;-81
2023/03/08 06:46:19;;;;;;;17.60;11.77;;;4.10;78.00;;;;;;4901668;29;20028;-82
2023/03/08 06:48:46;;;;;;;18.67;13.00;;;4.10;78.00;;;;;;4886714;29;20122;-81
2023/03/08 06:51:13;;;;;;;18.42;12.35;;;4.10;78.00;;;;;;4917948;29;20122;-80
2023/03/08 06:53:42;;;;;;;16.40;11.70;;;4.10;78.00;;;;;;4901743;29;20055;-81
2023/03/08 06:56:12;;;;;;;19.95;12.40;;;4.10;78.00;;;;;;4886108;29;20047;-82
2023/03/08 06:58:39;;;;;;;16.90;11.77;;;4.10;78.10;;;;;;4918733;29;20059;-82
2023/03/08 07:01:05;;;;;;;17.30;12.23;;;4.10;78.00;;;;;;4901291;29;20079;-83
2023/03/08 07:03:31;;;;;;;16.98;10.80;;;4.10;78.00;;;;;;4870645;29;20465;-81
2023/03/08 07:06:03;;;;;;;16.20;11.60;;;4.10;78.00;;;;;;4901256;29;20028;-81
2023/03/08 07:08:29;;;;;;;16.35;10.98;;;4.10;78.00;;;;;;4885698;29;20032;-83
2023/03/08 07:10:55;;;;;;;17.35;11.80;;;4.10;78.00;;;;;;4916821;29;20043;-79
2023/03/08 07:13:22;;;;;;;16.98;11.70;;;4.10;78.00;;;;;;4901016;29;20139;-79
2023/03/08 07:15:49;;;;;;;18.02;11.55;;;4.10;78.00;;;;;;4885655;29;20095;-80
2023/03/08 07:18:14;;;;;;;17.40;11.52;;;4.10;78.00;;;;;;4917514;29;20024;-81
2023/03/08 07:20:40;;;;;;;17.58;11.60;;;4.10;78.00;;;;;;4870042;29;20035;-80
2023/03/08 07:23:06;;;;;;;15.88;10.95;;;4.20;78.10;;;;;;4901837;29;20346;-82
2023/03/08 07:25:32;;;;;;;16.83;11.25;;;4.10;78.00;;;;;;4870118;29;20033;-88
2023/03/08 07:27:59;;;;;;;16.88;11.20;;;4.20;78.10;;;;;;4916746;29;20111;-79
2023/03/08 07:30:25;;;;;;;16.60;10.80;;;4.10;78.00;;;;;;4901133;29;20039;-81
2023/03/08 07:32:52;;;;;;;17.50;11.07;;;4.10;78.00;;;;;;4900707;29;20051;-79
2023/03/08 07:35:18;;;;;;;16.83;11.40;;;4.20;78.10;;;;;;4917077;29;20059;-80
2023/03/08 07:37:46;;;;;;;15.57;10.35;;;4.20;78.10;;;;;;4916673;29;20063;-80
2023/03/08 07:40:16;;;;;;;16.48;10.57;;;4.20;78.10;;;;;;4900905;29;20475;-83
2023/03/08 07:42:45;;;;;;;16.25;10.80;;;4.20;78.10;;;;;;4917210;29;20540;-83
2023/03/08 07:45:24;;;;;;;16.80;11.63;;;4.20;78.20;;;;;;4914577;29;20032;-82
2023/03/08 07:47:53;;;;;;;16.58;11.23;;;4.20;78.10;;;;;;4915931;29;20096;-80
2023/03/08 07:50:20;;;;;;;17.35;11.20;;;4.20;78.10;;;;;;4884508;29;20466;-80
2023/03/08 07:52:47;;;;;;;15.88;10.27;;;4.20;78.10;;;;;;4884761;29;20036;-85
2023/03/08 07:55:12;;;;;;;18.40;11.18;;;4.20;78.10;;;;;;4900334;29;20043;-85
2023/03/08 07:57:39;;;;;;;17.48;10.98;;;4.20;78.00;;;;;;4869268;29;20020;-83
2023/03/08 08:00:06;;;;;;;15.82;10.68;;;4.20;78.00;;;;;;4900634;29;20084;-81
2023/03/08 08:02:38;;;;;;;16.52;11.13;;;4.20;78.10;;;;;;4917317;29;20536;-81
2023/03/08 08:05:04;;;;;;;17.33;10.55;;;4.20;78.10;;;;;;4916549;29;20024;-84
2023/03/08 08:07:30;;;;;;;16.95;11.07;;;4.20;78.10;;;;;;4900860;29;20060;-82
2023/03/08 08:09:56;;;;;;;15.52;10.38;;;4.20;78.10;;;;;;4900406;29;20032;-82
2023/03/08 08:12:22;;;;;;;17.15;11.05;;;4.20;78.10;;;;;;4884987;29;20497;-82
2023/03/08 08:14:51;;;;;;;17.27;11.50;;;4.20;78.00;;;;;;4916104;29;20032;-83
2023/03/08 08:17:18;;;;;;;16.83;11.10;;;4.20;78.10;;;;;;4900450;29;20036;-82
2023/03/08 08:19:44;;;;;;;17.15;11.30;;;4.20;78.10;;;;;;4917856;29;20369;-84
2023/03/08 08:22:10;;;;;;;17.90;11.27;;;4.20;78.10;;;;;;4884843;29;20047;-82
2023/03/08 08:24:35;;;;;;;15.50;10.85;;;4.30;78.10;;;;;;4916393;29;20036;-84
2023/03/08 08:27:01;;;;;;;17.15;10.93;;;4.30;78.10;;;;;;4869772;29;20040;-80
2023/03/08 08:29:27;;;;;;;16.15;11.10;;;4.30;78.10;;;;;;4900345;29;20040;-83
2023/03/08 08:31:53;;;;;;;16.58;10.85;;;4.30;78.10;;;;;;4900360;29;20457;-81
2023/03/08 08:34:19;;;;;;;16.42;11.55;;;4.30;78.10;;;;;;4900583;29;20071;-83
2023/03/08 08:36:45;;;;;;;16.73;11.30;;;4.30;78.10;;;;;;4915952;29;20111;-82
2023/03/08 08:39:11;;;;;;;17.17;11.50;;;4.30;78.10;;;;;;4917513;29;20063;-81
2023/03/08 08:41:37;;;;;;;16.88;11.52;;;4.30;78.10;;;;;;4871439;29;20036;-82
2023/03/08 08:44:03;;;;;;;16.92;11.35;;;4.30;78.10;;;;;;4884829;29;20400;-82
2023/03/08 08:46:30;;;;;;;16.42;10.10;;;4.30;78.10;;;;;;4916836;29;20042;-81
2023/03/08 08:48:57;;;;;;;16.35;10.88;;;4.40;78.10;;;;;;4899929;29;20068;-81
2023/03/08 08:51:23;;;;;;;17.30;11.57;;;4.30;78.10;;;;;;4884616;29;20038;-80
2023/03/08 08:53:49;;;;;;;17.02;11.75;;;4.30;78.10;;;;;;4915556;29;20142;-82
2023/03/08 08:56:23;;;;;;;16.50;10.93;;;4.30;78.10;;;;;;4884552;29;20141;-79
2023/03/08 08:58:50;;;;;;;15.48;10.98;;;4.40;78.20;;;;;;4900155;29;20122;-81
2023/03/08 09:01:28;;;;;;;16.98;11.02;;;4.30;78.00;;;;;;4916677;29;20440;-81
2023/03/08 09:03:54;;;;;;;16.13;11.50;;;4.40;78.10;;;;;;4916872;29;20493;-80
2023/03/08 09:06:22;;;;;;;15.63;10.57;;;4.40;78.10;;;;;;4885063;29;20068;-80
2023/03/08 09:08:53;;;;;;;12.82;9.60;;;4.40;78.10;;;;;;4899805;29;20048;-82
2023/03/08 09:11:19;;;;;;;16.60;10.65;;;4.40;78.10;;;;;;4899904;29;20036;-80
2023/03/08 09:13:45;;;;;;;15.65;10.88;;;4.40;78.20;;;;;;4900140;29;20119;-80
2023/03/08 09:16:26;;;;;;;15.32;10.48;;;4.40;78.20;;;;;;4900249;29;20167;-82
2023/03/08 09:18:53;;;;;;;15.45;10.20;;;4.40;78.20;;;;;;4916465;29;20567;-81
2023/03/08 09:21:19;;;;;;;13.77;9.35;;;4.40;78.10;;;;;;4884214;29;20032;-81
2023/03/08 09:23:45;;;;;;;13.52;9.43;;;4.40;78.10;;;;;;4931742;29;20043;-81
2023/03/08 09:26:11;;;;;;;14.05;9.45;;;4.40;78.10;;;;;;4899580;29;20127;-81
2023/03/08 09:28:37;;;;;;;14.70;9.90;;;4.50;78.20;;;;;;4899486;29;20044;-81
2023/03/08 09:31:11;;;;;;;13.13;8.85;;;4.50;78.20;;;;;;4884168;29;20496;-82
2023/03/08 09:33:53;;;;;;;13.23;9.45;;;4.50;78.20;;;;;;4931136;29;20036;-81
2023/03/08 09:36:19;;;;;;;12.85;8.80;;;4.50;78.20;;;;;;4883717;29;20052;-81
2023/03/08 09:38:49;;;;;;;11.90;8.45;;;4.50;78.10;;;;;;4916852;29;20059;-81
2023/03/08 09:41:18;;;;;;;12.02;8.80;;;4.50;78.20;;;;;;4919621;29;20036;-81
2023/03/08 09:44:03;;;;;;;13.20;9.38;;;4.50;78.20;;;;;;4934856;29;20047;-81
2023/03/08 09:46:41;;;;;;;13.07;8.70;;;4.50;78.20;;;;;;4919359;29;20442;-81
2023/03/08 09:49:14;;;;;;;13.05;8.68;;;4.60;78.20;;;;;;4903317;29;20032;-84
2023/03/08 09:51:44;;;;;;;13.00;8.25;;;4.60;78.20;;;;;;4919087;29;20491;-83
2023/03/08 09:54:16;;;;;;;12.15;8.45;;;4.60;78.20;;;;;;4902859;29;20036;-83
2023/03/08 09:56:46;;;;;;;10.77;7.78;;;4.60;78.20;;;;;;4919968;29;20028;-84
2023/03/08 09:59:43;;;;;;;12.23;8.23;;;4.60;78.20;;;;;;4920267;29;20032;-83
2023/03/08 10:02:46;;;;;;;11.48;7.25;;;4.60;78.20;;;;;;4887853;29;20032;-82
2023/03/08 10:05:27;;;;;;;10.45;7.32;;;4.60;78.20;;;;;;4934914;29;20020;-82
2023/03/08 10:07:59;;;;;;;9.93;6.93;;;4.70;78.20;;;;;;4918413;29;20473;-81
2023/03/08 10:10:46;;;;;;;9.68;6.60;;;4.70;78.20;;;;;;4918484;29;20071;-84
2023/03/08 10:13:21;;;;;;;10.00;6.82;;;4.70;78.30;;;;;;4918485;29;20068;-81
2023/03/08 10:15:50;;;;;;;10.63;7.03;;;4.70;78.20;;;;;;4933703;29;20033;-82
2023/03/08 10:18:22;;;;;;;10.45;7.47;;;4.70;78.20;;;;;;4902867;29;20055;-82
2023/03/08 10:20:48;;;;;;;9.65;6.88;;;4.80;78.30;;;;;;4920089;29;20042;-82
2023/03/08 10:23:17;;;;;;;10.07;6.70;;;4.80;78.20;;;;;;4918268;29;20468;-83
2023/03/08 10:25:45;;;;;;;10.18;6.75;;;4.80;78.20;;;;;;4919160;29;20020;-83
2023/03/08 10:28:13;;;;;;;8.75;6.47;;;4.80;78.20;;;;;;4917965;29;20492;-85
2023/03/08 10:30:46;;;;;;;8.88;6.50;;;4.90;78.20;;;;;;4933833;29;20497;-82
2023/03/08 10:33:16;;;;;;;9.05;6.50;;;4.90;78.20;;;;;;4886692;29;20127;-83
2023/03/08 10:36:04;;;;;;;9.00;6.32;;;4.90;78.20;;;;;;4886346;29;20129;-83
2023/03/08 10:38:33;;;;;;;9.02;6.13;;;5.00;78.30;;;;;;4934274;29;20450;-85
2023/03/08 10:41:00;;;;;;;8.85;6.15;;;5.00;78.10;;;;;;4934415;29;20028;-84
2023/03/08 10:43:30;;;;;;;9.88;6.63;;;5.10;78.20;;;;;;4918387;29;20039;-84
2023/03/08 10:46:23;;;;;;;9.07;6.30;;;5.10;78.20;;;;;;4934215;29;20036;-83
2023/03/08 10:48:50;;;;;;;8.85;5.82;;;5.10;78.20;;;;;;4917448;29;20047;-83
2023/03/08 10:51:19;;;;;;;8.60;5.55;;;5.10;78.10;;;;;;4933538;29;20028;-83
2023/03/08 10:53:57;;;;;;;7.70;5.72;;;5.20;78.20;;;;;;4902412;29;20124;-84
2023/03/08 10:56:46;;;;;;;9.27;6.20;;;5.20;78.20;;;;;;4919235;29;20036;-84
2023/03/08 10:59:26;;;;;;;8.65;5.78;;;5.30;78.20;;;;;;4918674;29;20453;-85
2023/03/08 11:02:17;;;;;;;6.88;5.13;;;5.30;78.10;;;;;;4902743;29;20025;-82
2023/03/08 11:04:54;;;;;;;8.48;5.68;;;5.30;78.10;;;;;;4901967;29;20099;-81
2023/03/08 11:07:24;;;;;;;7.95;5.57;;;5.40;78.20;;;;;;4901356;29;20032;-82
2023/03/08 11:09:50;;;;;;;7.85;5.55;;;5.40;78.10;;;;;;4885866;29;20161;-82
2023/03/08 11:12:24;;;;;;;8.63;5.90;;;5.40;78.10;;;;;;4917335;29;20445;-83
2023/03/08 11:14:51;;;;;;;7.90;5.65;;;5.50;78.20;;;;;;4918373;29;20047;-83
2023/03/08 11:17:29;;;;;;;7.53;5.30;;;5.50;78.10;;;;;;4917336;29;20134;-84
2023/03/08 11:20:09;;;;;;;7.38;5.40;;;5.50;78.10;;;;;;4933054;29;20477;-82
2023/03/08 11:22:59;;;;;;;7.88;5.20;;;5.60;78.10;;;;;;4919117;29;20031;-85
2023/03/08 11:25:51;;;;;;;8.30;5.18;;;5.60;78.10;;;;;;4933137;29;20056;-83
2023/03/08 11:28:27;;;;;;;7.35;4.63;;;5.70;78.10;;;;;;4917607;29;20032;-85
2023/03/08 11:31:42;;;;;;;7.35;5.05;;;5.70;78.00;;;;;;4901351;29;20115;-82
2023/03/08 11:34:20;;;;;;;6.97;4.70;;;5.70;78.00;;;;;;4890818;29;20112;-83
2023/03/08 11:37:04;;;;;;;7.53;4.85;;;5.80;77.90;;;;;;4916807;29;20052;-82
2023/03/08 11:39:36;;;;;;;6.90;4.80;;;5.80;77.90;;;;;;4918226;29;20061;-83
2023/03/08 11:42:15;;;;;;;7.53;4.97;;;5.80;77.90;;;;;;4917374;29;20540;-84
2023/03/08 11:44:53;;;;;;;6.75;4.72;;;5.90;77.90;;;;;;4917565;29;20063;-85
2023/03/08 11:47:50;;;;;;;6.13;4.43;;;5.90;77.90;;;;;;4933572;29;20111;-85
2023/03/08 11:50:23;;;;;;;7.00;4.72;;;6.00;77.90;;;;;;4901393;29;20033;-84
2023/03/08 11:53:12;;;;;;;6.32;4.50;;;6.00;77.80;;;;;;4901472;29;20044;-85
2023/03/08 11:55:44;;;;;;;6.75;4.20;;;6.00;77.70;;;;;;4910960;29;20168;-84
2023/03/08 11:58:45;;;;;;;6.38;4.43;;;6.10;77.80;;;;;;4916691;29;20032;-83
2023/03/08 12:01:23;;;;;;;6.82;4.50;;;6.10;77.80;;;;;;4899767;29;20051;-84
2023/03/08 12:03:54;;;;;;;6.10;3.95;;;6.20;77.80;;;;;;4918523;29;20032;-83
2023/03/08 12:06:25;;;;;;;6.45;4.25;;;6.20;77.80;;;;;;4885481;29;20131;-83
2023/03/08 12:09:04;;;;;;;7.18;4.65;;;6.20;77.80;;;;;;4916692;29;20095;-85
2023/03/08 12:11:54;;;;;;;6.93;4.70;;;6.20;77.80;;;;;;4885440;29;20028;-83
2023/03/08 12:14:30;;;;;;;6.82;4.53;;;6.20;77.80;;;;;;4917283;29;20390;-83
2023/03/08 12:17:11;;;;;;;7.78;5.05;;;6.30;77.80;;;;;;4900949;29;20071;-83
2023/03/08 12:19:43;;;;;;;7.10;4.68;;;6.30;77.80;;;;;;4917457;29;20036;-85
2023/03/08 12:22:43;;;;;;;6.53;4.75;;;6.30;77.70;;;;;;4900785;29;20032;-80
2023/03/08 12:25:29;;;;;;;6.60;4.55;;;6.30;77.80;;;;;;4900381;29;20032;-82
2023/03/08 12:28:00;;;;;;;7.25;4.72;;;6.40;77.80;;;;;;4899991;29;20036;-81
2023/03/08 12:30:53;;;;;;;5.82;4.10;;;6.30;77.70;;;;;;4916890;29;20039;-83
2023/03/08 12:33:19;;;;;;;7.97;4.75;;;6.40;77.80;;;;;;4931871;29;20040;-82
2023/03/08 12:35:57;;;;;;;6.25;4.15;;;6.40;77.70;;;;;;4900002;29;20071;-81
2023/03/08 12:38:22;;;;;;;7.45;4.90;;;6.40;77.70;;;;;;4932075;29;20043;-82
2023/03/08 12:40:54;;;;;;;7.20;5.00;;;6.40;77.70;;;;;;4915796;29;20127;-81
2023/03/08 12:43:19;;;;;;;6.68;4.68;;;6.50;77.70;;;;;;4900308;29;20040;-82
2023/03/08 12:46:07;;;;;;;7.28;4.80;;;6.50;77.70;;;;;;4915736;29;20494;-82
2023/03/08 12:48:36;;;;;;;6.90;4.57;;;6.50;77.70;;;;;;4899959;29;20048;-85
2023/03/08 12:51:22;;;;;;;6.13;4.40;;;6.50;77.60;;;;;;4931724;29;20072;-82
2023/03/08 12:53:51;;;;;;;7.15;5.13;;;6.60;77.70;;;;;;4931892;29;20036;-82
2023/03/08 12:56:23;;;;;;;6.00;4.47;;;6.60;77.60;;;;;;4915840;29;20034;-82
2023/03/08 12:58:52;;;;;;;6.72;4.50;;;6.70;77.70;;;;;;4915895;29;20036;-84
2023/03/08 13:01:58;;;;;;;6.55;4.30;;;6.60;77.60;;;;;;4916937;29;20071;-83
2023/03/08 13:04:29;;;;;;;6.82;4.50;;;6.70;77.60;;;;;;4917401;29;20124;-83